Time,TemperatureF,DewpointF,PressureIn,WindDirection,WindDirectionDegrees,WindSpeedMPH,WindSpeedGustMPH,Humidity,HourlyPrecipIn,Conditions,Clouds,dailyrainin,SoftwareType,DateUTC
2013-01-26 00:03:00,19.0,16.0,29.96,SSE,155,0.0,0.0,89,0.00,,,0.00,,2013-01-26 05:03:00,
2013-01-26 00:12:00,19.0,16.0,29.96,SSE,155,0.0,0.0,89,0.00,,,0.00,,2013-01-26 05:12:00,
2013-01-26 00:23:00,19.0,16.0,29.97,SSE,155,0.0,0.0,89,0.00,,,0.00,,2013-01-26 05:23:00,
2013-01-26 00:33:00,19.0,16.0,29.97,SSE,155,0.0,0.0,89,0.00,,,0.00,,2013-01-26 05:33:00,
2013-01-26 00:42:00,19.0,16.0,29.97,SSE,155,0.0,0.0,89,0.00,,,0.00,,2013-01-26 05:42:00,
2013-01-26 00:53:00,19.0,16.0,29.98,SSE,155,0.0,0.0,89,0.00,,,0.00,,2013-01-26 05:53:00,
2013-01-26 01:03:00,19.0,16.0,29.97,SSE,155,0.0,0.0,89,0.00,,,0.00,,2013-01-26 06:03:00,
2013-01-26 01:12:00,19.0,16.0,29.97,SSE,155,0.0,0.0,89,0.00,,,0.00,,2013-01-26 06:12:00,
2013-01-26 01:21:00,19.0,16.0,29.97,SSE,155,0.0,0.0,89,0.00,,,0.00,,2013-01-26 06:21:00,
2013-01-26 01:32:00,18.0,15.0,29.98,SSE,155,0.0,0.0,89,0.00,,,0.00,,2013-01-26 06:32:00,
2013-01-26 01:42:00,18.0,15.0,29.98,SSE,155,0.0,0.0,89,0.00,,,0.00,,2013-01-26 06:42:00,
2013-01-26 01:52:00,19.0,16.0,29.97,SSE,155,0.0,0.0,89,0.00,,,0.00,,2013-01-26 06:52:00,
2013-01-26 02:02:00,18.0,15.0,29.98,SSE,155,0.0,0.0,89,0.00,,,0.00,,2013-01-26 07:02:00,
2013-01-26 02:12:00,18.0,15.0,29.98,SSE,155,0.0,0.0,89,0.00,,,0.00,,2013-01-26 07:12:00,
2013-01-26 02:22:00,18.0,15.0,29.98,SSE,155,0.0,0.0,89,0.00,,,0.00,,2013-01-26 07:22:00,
2013-01-26 02:33:00,18.0,16.0,29.99,SSE,155,0.0,0.0,90,0.00,,,0.00,,2013-01-26 07:33:00,
2013-01-26 02:42:00,18.0,16.0,29.99,SSE,155,0.0,0.0,90,0.00,,,0.00,,2013-01-26 07:42:00,
2013-01-26 02:52:00,18.0,16.0,30.00,SSE,155,0.0,0.0,90,0.00,,,0.00,,2013-01-26 07:52:00,
2013-01-26 03:02:00,18.0,16.0,30.01,SSE,155,0.0,0.0,90,0.00,,,0.00,,2013-01-26 08:02:00,
2013-01-26 03:11:00,18.0,16.0,30.01,SSE,155,0.0,0.0,90,0.00,,,0.00,,2013-01-26 08:11:00,
2013-01-26 03:22:00,18.0,16.0,30.01,SSE,155,0.0,0.0,90,0.00,,,0.00,,2013-01-26 08:22:00,
2013-01-26 03:32:00,18.0,16.0,30.01,SSE,155,0.0,0.0,90,0.00,,,0.00,,2013-01-26 08:32:00,
2013-01-26 03:42:00,18.0,16.0,30.01,SSE,155,0.0,0.0,90,0.00,,,0.00,,2013-01-26 08:42:00,
2013-01-26 03:54:00,18.0,16.0,30.02,WNW,292,0.0,1.0,90,0.00,,,0.00,,2013-01-26 08:54:00,
2013-01-26 04:02:00,19.0,17.0,30.02,WNW,290,1.0,2.0,90,0.00,,,0.00,,2013-01-26 09:02:00,
2013-01-26 04:11:00,19.0,17.0,30.02,WNW,290,1.0,2.0,90,0.00,,,0.00,,2013-01-26 09:11:00,
2013-01-26 04:22:00,19.0,17.0,30.02,WNW,290,0.0,0.0,90,0.00,,,0.00,,2013-01-26 09:22:00,
2013-01-26 04:32:00,19.0,16.0,30.03,WNW,290,0.0,1.0,89,0.00,,,0.00,,2013-01-26 09:32:00,
2013-01-26 04:42:00,19.0,16.0,30.03,WNW,290,0.0,1.0,89,0.00,,,0.00,,2013-01-26 09:42:00,
2013-01-26 04:52:00,19.0,16.0,30.04,WNW,290,0.0,0.0,89,0.00,,,0.00,,2013-01-26 09:52:00,
2013-01-26 05:01:00,19.0,16.0,30.05,WNW,288,1.0,1.0,88,0.00,,,0.00,,2013-01-26 10:01:00,
2013-01-26 05:12:00,19.0,16.0,30.05,WNW,288,1.0,1.0,88,0.00,,,0.00,,2013-01-26 10:12:00,
2013-01-26 05:21:00,19.0,16.0,30.05,WNW,288,0.0,1.0,88,0.00,,,0.00,,2013-01-26 10:21:00,
2013-01-26 05:32:00,19.0,16.0,30.05,WNW,288,0.0,0.0,88,0.00,,,0.00,,2013-01-26 10:32:00,
2013-01-26 05:42:00,19.0,16.0,30.05,WNW,288,0.0,0.0,88,0.00,,,0.00,,2013-01-26 10:42:00,
2013-01-26 05:52:00,19.0,16.0,30.06,WNW,288,0.0,0.0,88,0.00,,,0.00,,2013-01-26 10:52:00,
2013-01-26 06:01:00,19.0,16.0,30.06,WNW,288,0.0,0.0,87,0.00,,,0.00,,2013-01-26 11:01:00,
2013-01-26 06:12:00,19.0,16.0,30.06,WNW,288,0.0,0.0,87,0.00,,,0.00,,2013-01-26 11:12:00,
2013-01-26 06:22:00,20.0,17.0,30.07,WNW,288,0.0,1.0,87,0.00,,,0.00,,2013-01-26 11:22:00,
2013-01-26 06:32:00,20.0,17.0,30.07,WNW,289,0.0,1.0,87,0.00,,,0.00,,2013-01-26 11:32:00,
2013-01-26 06:42:00,20.0,17.0,30.07,WNW,289,0.0,1.0,87,0.00,,,0.00,,2013-01-26 11:42:00,
2013-01-26 06:52:00,20.0,17.0,30.08,WNW,289,0.0,1.0,87,0.00,,,0.00,,2013-01-26 11:52:00,
2013-01-26 07:02:00,20.0,16.0,30.09,WNW,287,1.0,1.0,86,0.00,,,0.00,,2013-01-26 12:02:00,
2013-01-26 07:12:00,20.0,16.0,30.09,WNW,287,1.0,1.0,86,0.00,,,0.00,,2013-01-26 12:12:00,
2013-01-26 07:23:00,20.0,16.0,30.09,WNW,289,1.0,2.0,85,0.00,,,0.00,,2013-01-26 12:23:00,
2013-01-26 07:33:00,20.0,16.0,30.09,WSW,256,0.0,2.0,85,0.00,,,0.00,,2013-01-26 12:33:00,
2013-01-26 07:42:00,20.0,16.0,30.09,WSW,256,0.0,2.0,85,0.00,,,0.00,,2013-01-26 12:42:00,
2013-01-26 07:53:00,20.0,16.0,30.10,WSW,257,1.0,1.0,85,0.00,,,0.00,,2013-01-26 12:53:00,
2013-01-26 08:03:00,20.0,16.0,30.11,WNW,298,2.0,3.0,85,0.00,,,0.00,,2013-01-26 13:03:00,
2013-01-26 08:12:00,20.0,16.0,30.11,WNW,298,2.0,3.0,85,0.00,,,0.00,,2013-01-26 13:12:00,
2013-01-26 08:22:00,20.0,16.0,30.11,WNW,299,0.0,0.0,84,0.00,,,0.00,,2013-01-26 13:22:00,
2013-01-26 08:33:00,21.0,17.0,30.11,WNW,294,0.0,2.0,83,0.00,,,0.00,,2013-01-26 13:33:00,
2013-01-26 08:42:00,21.0,17.0,30.11,WNW,294,0.0,2.0,83,0.00,,,0.00,,2013-01-26 13:42:00,
2013-01-26 08:53:00,21.0,17.0,30.12,SW,219,0.0,1.0,83,0.00,,,0.00,,2013-01-26 13:53:00,
2013-01-26 09:03:00,21.0,16.0,30.12,WSW,257,0.0,0.0,82,0.00,,,0.00,,2013-01-26 14:03:00,
2013-01-26 09:12:00,21.0,16.0,30.12,WSW,257,0.0,0.0,82,0.00,,,0.00,,2013-01-26 14:12:00,
2013-01-26 09:22:00,21.0,16.0,30.13,WNW,290,0.0,3.0,82,0.00,,,0.00,,2013-01-26 14:22:00,
2013-01-26 09:32:00,21.0,16.0,30.14,NNW,334,0.0,3.0,81,0.00,,,0.00,,2013-01-26 14:32:00,
2013-01-26 09:43:00,21.0,16.0,30.14,NNW,334,0.0,3.0,81,0.00,,,0.00,,2013-01-26 14:43:00,
2013-01-26 09:53:00,22.0,17.0,30.14,West,260,0.0,3.0,80,0.00,,,0.00,,2013-01-26 14:53:00,
2013-01-26 10:03:00,22.0,16.0,30.15,WSW,254,1.0,4.0,79,0.00,,,0.00,,2013-01-26 15:03:00,
2013-01-26 10:12:00,22.0,16.0,30.15,WSW,254,1.0,4.0,79,0.00,,,0.00,,2013-01-26 15:12:00,
2013-01-26 10:22:00,23.0,17.0,30.17,West,275,0.0,2.0,79,0.00,,,0.00,,2013-01-26 15:22:00,
2013-01-26 10:32:00,23.0,17.0,30.18,WSW,255,0.0,1.0,78,0.00,,,0.00,,2013-01-26 15:32:00,
2013-01-26 10:43:00,23.0,17.0,30.18,WSW,255,0.0,1.0,78,0.00,,,0.00,,2013-01-26 15:43:00,
2013-01-26 10:53:00,24.0,18.0,30.18,West,261,0.0,1.0,77,0.00,,,0.00,,2013-01-26 15:53:00,
2013-01-26 11:02:00,25.0,18.0,30.19,NNW,336,0.0,3.0,75,0.00,,,0.00,,2013-01-26 16:02:00,
2013-01-26 11:12:00,25.0,18.0,30.19,NNW,336,0.0,3.0,75,0.00,,,0.00,,2013-01-26 16:12:00,
2013-01-26 11:22:00,26.0,19.0,30.19,West,276,2.0,4.0,74,0.00,,,0.00,,2013-01-26 16:22:00,
2013-01-26 11:33:00,26.0,19.0,30.19,WNW,288,0.0,7.0,73,0.01,,,0.01,,2013-01-26 16:33:00,
2013-01-26 11:42:00,26.0,19.0,30.19,WNW,288,0.0,7.0,73,0.01,,,0.01,,2013-01-26 16:42:00,
2013-01-26 11:53:00,27.0,19.0,30.19,NNW,329,3.0,6.0,71,0.01,,,0.01,,2013-01-26 16:53:00,
2013-01-26 12:03:00,28.0,20.0,30.20,NW,325,0.0,4.0,70,0.01,,,0.01,,2013-01-26 17:03:00,
2013-01-26 12:13:00,28.0,20.0,30.20,NW,325,0.0,4.0,70,0.01,,,0.01,,2013-01-26 17:13:00,
2013-01-26 12:22:00,28.0,19.0,30.20,WNW,295,0.0,4.0,68,0.02,,,0.02,,2013-01-26 17:22:00,
2013-01-26 12:33:00,28.0,18.0,30.21,WNW,298,0.0,5.0,67,0.01,,,0.02,,2013-01-26 17:33:00,
2013-01-26 12:42:00,28.0,18.0,30.21,WNW,298,0.0,5.0,67,0.01,,,0.02,,2013-01-26 17:42:00,
2013-01-26 12:53:00,28.0,19.0,30.21,NNE,24,0.0,1.0,68,0.02,,,0.03,,2013-01-26 17:53:00,
2013-01-26 13:03:00,28.0,19.0,30.22,WSW,252,0.0,3.0,68,0.02,,,0.03,,2013-01-26 18:03:00,
2013-01-26 13:12:00,28.0,19.0,30.22,WSW,252,0.0,3.0,68,0.02,,,0.03,,2013-01-26 18:12:00,
2013-01-26 13:22:00,29.0,19.0,30.22,West,264,0.0,6.0,65,0.01,,,0.03,,2013-01-26 18:22:00,
2013-01-26 13:33:00,29.0,18.0,30.22,WSW,257,0.0,4.0,64,0.02,,,0.04,,2013-01-26 18:33:00,
2013-01-26 13:42:00,29.0,18.0,30.22,WSW,257,0.0,4.0,64,0.02,,,0.04,,2013-01-26 18:42:00,
2013-01-26 13:53:00,28.0,17.0,30.22,WSW,253,0.0,3.0,63,0.01,,,0.04,,2013-01-26 18:53:00,
2013-01-26 14:03:00,29.0,18.0,30.22,WNW,294,2.0,4.0,62,0.01,,,0.04,,2013-01-26 19:03:00,
2013-01-26 14:12:00,29.0,18.0,30.22,WNW,294,2.0,4.0,62,0.01,,,0.04,,2013-01-26 19:12:00,
2013-01-26 14:22:00,29.0,17.0,30.22,WNW,287,0.0,3.0,61,0.01,,,0.04,,2013-01-26 19:22:00,
2013-01-26 14:32:00,30.0,18.0,30.22,WNW,287,0.0,3.0,60,0.01,,,0.04,,2013-01-26 19:32:00,
2013-01-26 14:42:00,30.0,18.0,30.22,WNW,287,0.0,3.0,60,0.01,,,0.04,,2013-01-26 19:42:00,
2013-01-26 14:53:00,30.0,17.0,30.23,NNE,17,2.0,4.0,59,0.01,,,0.04,,2013-01-26 19:53:00,
2013-01-26 15:02:00,31.0,18.0,30.23,North,355,0.0,5.0,58,0.01,,,0.04,,2013-01-26 20:02:00,
2013-01-26 15:11:00,31.0,18.0,30.23,North,355,0.0,5.0,58,0.01,,,0.04,,2013-01-26 20:11:00,
2013-01-26 15:22:00,30.0,17.0,30.23,NE,41,0.0,3.0,59,0.01,,,0.04,,2013-01-26 20:22:00,
2013-01-26 15:32:00,30.0,17.0,30.23,NNE,19,0.0,2.0,57,0.00,,,0.04,,2013-01-26 20:32:00,
2013-01-26 15:42:00,30.0,17.0,30.23,NNE,19,0.0,2.0,57,0.00,,,0.04,,2013-01-26 20:42:00,
2013-01-26 15:52:00,30.0,17.0,30.24,NNW,346,0.0,2.0,57,0.00,,,0.04,,2013-01-26 20:52:00,
2013-01-26 16:02:00,30.0,17.0,30.24,NNE,25,0.0,3.0,58,0.00,,,0.04,,2013-01-26 21:02:00,
2013-01-26 16:12:00,30.0,17.0,30.24,NNE,25,0.0,3.0,58,0.00,,,0.04,,2013-01-26 21:12:00,
2013-01-26 16:23:00,30.0,17.0,30.25,NNE,28,0.0,3.0,57,0.01,,,0.05,,2013-01-26 21:23:00,
2013-01-26 16:32:00,29.0,16.0,30.26,West,263,0.0,3.0,57,0.01,,,0.05,,2013-01-26 21:32:00,
2013-01-26 16:42:00,29.0,16.0,30.26,West,263,0.0,3.0,57,0.01,,,0.05,,2013-01-26 21:42:00,
2013-01-26 16:52:00,29.0,16.0,30.26,West,263,0.0,0.0,59,0.01,,,0.05,,2013-01-26 21:52:00,
2013-01-26 17:02:00,29.0,16.0,30.27,West,263,0.0,0.0,59,0.01,,,0.05,,2013-01-26 22:02:00,
2013-01-26 17:12:00,29.0,16.0,30.27,West,263,0.0,0.0,59,0.01,,,0.05,,2013-01-26 22:12:00,
2013-01-26 17:22:00,29.0,16.0,30.27,West,263,0.0,0.0,57,0.00,,,0.05,,2013-01-26 22:22:00,
2013-01-26 17:32:00,28.0,16.0,30.28,West,263,0.0,0.0,59,0.00,,,0.05,,2013-01-26 22:32:00,
2013-01-26 17:42:00,28.0,16.0,30.28,West,263,0.0,0.0,59,0.00,,,0.05,,2013-01-26 22:42:00,
2013-01-26 17:52:00,27.0,15.0,30.29,West,263,0.0,0.0,61,0.00,,,0.05,,2013-01-26 22:52:00,
2013-01-26 18:02:00,26.0,16.0,30.29,West,263,0.0,0.0,65,0.00,,,0.05,,2013-01-26 23:02:00,
2013-01-26 18:12:00,26.0,16.0,30.29,West,263,0.0,0.0,65,0.00,,,0.05,,2013-01-26 23:12:00,
2013-01-26 18:22:00,24.0,15.0,30.30,West,263,0.0,0.0,67,0.00,,,0.05,,2013-01-26 23:22:00,
2013-01-26 18:32:00,23.0,15.0,30.30,West,263,0.0,0.0,70,0.00,,,0.05,,2013-01-26 23:32:00,
2013-01-26 18:42:00,23.0,15.0,30.30,West,263,0.0,0.0,70,0.00,,,0.05,,2013-01-26 23:42:00,
2013-01-26 18:52:00,22.0,15.0,30.31,West,263,0.0,0.0,73,0.00,,,0.05,,2013-01-26 23:52:00,
2013-01-26 19:02:00,21.0,14.0,30.31,West,263,0.0,0.0,74,0.00,,,0.05,,2013-01-27 00:02:00,
2013-01-26 19:12:00,21.0,14.0,30.31,West,263,0.0,0.0,74,0.00,,,0.05,,2013-01-27 00:12:00,
2013-01-26 19:22:00,20.0,13.0,30.31,West,263,0.0,0.0,75,0.00,,,0.05,,2013-01-27 00:22:00,
2013-01-26 19:32:00,19.0,13.0,30.32,West,263,0.0,0.0,77,0.00,,,0.05,,2013-01-27 00:32:00,
2013-01-26 19:42:00,19.0,13.0,30.32,West,263,0.0,0.0,77,0.00,,,0.05,,2013-01-27 00:42:00,
2013-01-26 19:52:00,19.0,13.0,30.32,West,263,0.0,0.0,78,0.00,,,0.05,,2013-01-27 00:52:00,
2013-01-26 20:01:00,18.0,13.0,30.32,West,263,0.0,0.0,79,0.00,,,0.05,,2013-01-27 01:01:00,
2013-01-26 20:11:00,18.0,13.0,30.32,West,263,0.0,0.0,79,0.00,,,0.05,,2013-01-27 01:11:00,
2013-01-26 20:22:00,18.0,13.0,30.31,West,263,0.0,0.0,80,0.00,,,0.05,,2013-01-27 01:22:00,
2013-01-26 20:32:00,18.0,13.0,30.32,West,263,0.0,0.0,81,0.00,,,0.05,,2013-01-27 01:32:00,
2013-01-26 20:42:00,18.0,13.0,30.32,West,263,0.0,0.0,81,0.00,,,0.05,,2013-01-27 01:42:00,
2013-01-26 20:52:00,18.0,13.0,30.32,West,263,0.0,0.0,81,0.00,,,0.05,,2013-01-27 01:52:00,
2013-01-26 21:01:00,17.0,12.0,30.32,West,263,0.0,0.0,82,0.00,,,0.05,,2013-01-27 02:01:00,
2013-01-26 21:12:00,17.0,12.0,30.32,West,263,0.0,0.0,82,0.00,,,0.05,,2013-01-27 02:12:00,
2013-01-26 21:22:00,17.0,13.0,30.32,West,263,0.0,0.0,83,0.00,,,0.05,,2013-01-27 02:22:00,
2013-01-26 21:32:00,17.0,13.0,30.32,West,263,0.0,0.0,83,0.00,,,0.05,,2013-01-27 02:32:00,
2013-01-26 21:42:00,17.0,13.0,30.32,West,263,0.0,0.0,83,0.00,,,0.05,,2013-01-27 02:42:00,
2013-01-26 21:52:00,17.0,13.0,30.32,West,263,0.0,0.0,83,0.00,,,0.05,,2013-01-27 02:52:00,
2013-01-26 22:02:00,16.0,12.0,30.33,West,263,0.0,0.0,84,0.00,,,0.05,,2013-01-27 03:02:00,
2013-01-26 22:11:00,16.0,12.0,30.33,West,263,0.0,0.0,84,0.00,,,0.05,,2013-01-27 03:11:00,
2013-01-26 22:21:00,16.0,12.0,30.34,West,263,0.0,0.0,84,0.00,,,0.05,,2013-01-27 03:21:00,
2013-01-26 22:32:00,15.0,11.0,30.33,West,263,0.0,0.0,85,0.00,,,0.05,,2013-01-27 03:32:00,
2013-01-26 22:42:00,15.0,11.0,30.33,West,263,0.0,0.0,85,0.00,,,0.05,,2013-01-27 03:42:00,
2013-01-26 22:52:00,15.0,11.0,30.34,West,263,0.0,0.0,85,0.00,,,0.05,,2013-01-27 03:52:00,
2013-01-26 23:02:00,15.0,11.0,30.35,West,263,0.0,0.0,85,0.00,,,0.05,,2013-01-27 04:02:00,
2013-01-26 23:12:00,15.0,11.0,30.35,West,263,0.0,0.0,85,0.00,,,0.05,,2013-01-27 04:12:00,
2013-01-26 23:22:00,14.0,11.0,30.35,West,263,0.0,0.0,86,0.00,,,0.05,,2013-01-27 04:22:00,
2013-01-26 23:32:00,14.0,11.0,30.35,West,263,0.0,0.0,86,0.00,,,0.05,,2013-01-27 04:32:00,
2013-01-26 23:42:00,14.0,11.0,30.35,West,263,0.0,0.0,86,0.00,,,0.05,,2013-01-27 04:42:00,
2013-01-26 23:52:00,14.0,11.0,30.35,West,263,0.0,0.0,86,0.00,,,0.05,,2013-01-27 04:52:00,